Terminal Aerodrome Forecast
Issued by NWS Pocatello, ID

Home | Current Version | Previous Version | Text Only | Print | Product List | Glossary On
Versions: 1 2 3 4 5 6 7 8 9 10 11 12 13 14 15 16 17 18 19 20 21 22 23 24 25
000
FTUS45 KPIH 251800 AAA
TAFPIH
TAF AMD
KPIH 251800Z 2518/2618 VRB05KT P6SM SCT004 OVC025
     FM252100 05007KT P6SM FEW004 SCT025
     FM260800 08007KT P6SM SCT004 SCT140=

USA.gov is the U.S. government's official web portal to all federal, state and local government web resources and services.